createdAt,value
2022-12-18T00:01:11.885Z,5.75
2022-12-18T00:03:40.687Z,5.77
2022-12-18T00:06:08.362Z,5.84
2022-12-18T00:09:13.681Z,5.88
2022-12-18T00:11:41.902Z,5.93
2022-12-18T00:14:10.181Z,5.88
2022-12-18T00:17:15.472Z,5.83
2022-12-18T00:19:43.701Z,5.82
2022-12-18T00:22:11.968Z,5.72
2022-12-18T00:24:40.246Z,5.71
2022-12-18T00:27:08.474Z,5.58
2022-12-18T00:30:13.787Z,5.58
2022-12-18T00:32:42.008Z,5.57
2022-12-18T00:35:10.250Z,5.64
2022-12-18T00:37:38.504Z,5.68
2022-12-18T00:39:58.585Z,5.68
2022-12-18T00:43:03.856Z,5.76
2022-12-18T00:46:09.251Z,5.71
2022-12-18T00:49:14.513Z,5.93
2022-12-18T00:51:42.724Z,5.92
2022-12-18T00:54:10.981Z,5.88
2022-12-18T00:57:16.274Z,5.97
2022-12-18T00:59:44.540Z,5.94
2022-12-18T01:02:12.923Z,5.93
2022-12-18T01:04:41.046Z,5.76
2022-12-18T01:07:46.345Z,6.11
2022-12-18T01:10:14.607Z,6.12
2022-12-18T01:12:42.830Z,6.13
2022-12-18T01:15:11.078Z,6.18
2022-12-18T01:18:16.375Z,6.17
2022-12-18T01:20:44.613Z,6.18
2022-12-18T01:23:12.880Z,6.06
2022-12-18T01:25:41.106Z,6.05
2022-12-18T01:28:09.377Z,5.98
2022-12-18T01:31:51.759Z,5.76
2022-12-18T01:34:57.032Z,5.75
2022-12-18T01:38:02.356Z,5.75
2022-12-18T01:41:07.703Z,5.81
2022-12-18T01:44:12.983Z,5.86
2022-12-18T01:46:41.220Z,5.85
2022-12-18T01:49:38.356Z,5.9
2022-12-18T01:52:06.624Z,5.86
2022-12-18T01:55:11.902Z,5.93
2022-12-18T01:57:40.182Z,5.95
2022-12-18T02:00:08.392Z,5.99
2022-12-18T02:05:04.926Z,6
2022-12-18T02:10:38.439Z,6.02
2022-12-18T02:15:34.917Z,6.03
2022-12-18T02:19:17.275Z,6.04
2022-12-18T02:21:45.556Z,6.07
2022-12-18T02:24:13.801Z,6.07
2022-12-18T02:26:42.052Z,6.06
2022-12-18T02:29:10.272Z,6.14
2022-12-18T02:32:15.589Z,6.1
2022-12-18T02:34:43.867Z,6.05
2022-12-18T02:37:12.102Z,5.93
2022-12-18T02:39:40.302Z,5.9
2022-12-18T02:42:08.589Z,5.77
2022-12-18T02:45:13.892Z,5.63
2022-12-18T02:47:42.119Z,5.61
2022-12-18T02:50:10.391Z,5.6
2022-12-18T02:53:31.147Z,5.54
2022-12-18T02:55:43.951Z,5.55
2022-12-18T02:58:12.223Z,5.76
2022-12-18T03:00:32.272Z,5.77
2022-12-18T03:03:00.617Z,5.84
2022-12-18T03:06:05.789Z,5.94
2022-12-18T03:09:11.139Z,5.97
2022-12-18T03:12:53.470Z,5.96
2022-12-18T03:15:58.768Z,5.92
2022-12-18T03:19:04.098Z,5.93
2022-12-18T03:22:09.383Z,6.01
2022-12-18T03:25:14.721Z,6.07
2022-12-18T03:27:42.945Z,6.08
2022-12-18T03:30:11.258Z,6.03
2022-12-18T03:33:16.558Z,6.04
2022-12-18T03:35:44.749Z,6.05
2022-12-18T03:38:13.024Z,6.04
2022-12-18T03:40:41.255Z,6.04
2022-12-18T03:43:09.536Z,6.08
2022-12-18T03:46:14.881Z,6.07
2022-12-18T03:48:43.094Z,6.02
2022-12-18T03:51:11.293Z,6.03
2022-12-18T03:54:16.648Z,6.05
2022-12-18T03:56:44.866Z,6.09
2022-12-18T03:59:13.144Z,6.06
2022-12-18T04:01:33.262Z,6.06
2022-12-18T04:04:01.560Z,5.92
2022-12-18T04:07:06.745Z,6.01
2022-12-18T04:10:12.008Z,6
2022-12-18T04:12:40.306Z,6
2022-12-18T04:15:08.564Z,5.97
2022-12-18T04:18:13.865Z,5.89
2022-12-18T04:20:42.081Z,5.88
2022-12-18T04:23:10.344Z,5.88
2022-12-18T04:26:15.639Z,5.91
2022-12-18T04:28:43.909Z,5.9
2022-12-18T04:31:12.237Z,5.85
2022-12-18T04:33:40.694Z,5.8
2022-12-18T04:36:08.660Z,5.6
2022-12-18T04:39:13.972Z,5.46
2022-12-18T04:41:42.216Z,5.46
2022-12-18T04:44:10.422Z,5.56
2022-12-18T04:47:15.761Z,5.59
2022-12-18T04:49:44.030Z,5.61
2022-12-18T04:52:12.238Z,5.7
2022-12-18T04:54:40.503Z,5.73
2022-12-18T04:57:08.744Z,5.76
2022-12-18T05:00:05.869Z,5.8
2022-12-18T05:03:11.260Z,5.86
2022-12-18T05:05:39.439Z,5.88
2022-12-18T05:08:07.631Z,5.89
2022-12-18T05:11:12.963Z,5.9
2022-12-18T05:13:41.505Z,5.86
2022-12-18T05:16:09.503Z,5.84
2022-12-18T05:19:14.737Z,5.75
2022-12-18T05:21:42.993Z,5.79
2022-12-18T05:24:11.312Z,5.87
2022-12-18T05:27:16.548Z,5.75
2022-12-18T05:29:44.821Z,5.76
2022-12-18T05:32:13.072Z,5.8
2022-12-18T05:34:41.284Z,5.84
2022-12-18T05:37:09.553Z,5.9
2022-12-18T05:40:14.860Z,5.92
2022-12-18T05:42:43.114Z,5.91
2022-12-18T05:45:11.337Z,5.84
2022-12-18T05:48:16.657Z,5.86
2022-12-18T05:50:44.887Z,5.86
2022-12-18T05:53:13.173Z,5.94
2022-12-18T05:55:41.413Z,5.93
2022-12-18T05:58:09.631Z,5.92
2022-12-18T06:00:37.870Z,5.95
2022-12-18T06:02:58.032Z,5.96
2022-12-18T06:06:03.294Z,5.93
2022-12-18T06:09:09.655Z,5.92
2022-12-18T06:12:13.906Z,5.92
2022-12-18T06:14:42.130Z,5.92
2022-12-18T06:17:10.418Z,5.92
2022-12-18T06:20:15.693Z,5.91
2022-12-18T06:22:43.953Z,5.92
2022-12-18T06:25:12.161Z,5.96
2022-12-18T06:27:40.439Z,5.98
2022-12-18T06:30:08.676Z,5.94
2022-12-18T06:33:13.964Z,5.86
2022-12-18T06:35:42.224Z,5.86
2022-12-18T06:38:10.480Z,5.88
2022-12-18T06:41:15.770Z,5.82
2022-12-18T06:43:44.028Z,5.82
2022-12-18T06:46:12.302Z,5.84
2022-12-18T06:48:40.531Z,5.83
2022-12-18T06:51:08.775Z,5.83
2022-12-18T06:54:14.093Z,5.86
2022-12-18T06:56:42.304Z,5.86
2022-12-18T06:59:10.597Z,5.88
2022-12-18T07:03:58.950Z,5.89
2022-12-18T07:07:04.211Z,5.9
2022-12-18T07:10:09.503Z,5.86
2022-12-18T07:13:14.828Z,5.76
2022-12-18T07:15:43.169Z,5.78
2022-12-18T07:18:11.300Z,5.88
2022-12-18T07:21:16.630Z,5.92
2022-12-18T07:23:44.917Z,5.92
2022-12-18T07:26:13.157Z,5.84
2022-12-18T07:28:41.357Z,5.84
2022-12-18T07:31:09.589Z,5.77
2022-12-18T07:34:14.908Z,5.7
2022-12-18T07:36:43.332Z,5.7
2022-12-18T07:39:11.413Z,5.75
2022-12-18T07:42:16.735Z,5.85
2022-12-18T07:44:44.976Z,5.84
2022-12-18T07:47:13.199Z,5.89
2022-12-18T07:49:41.493Z,5.92
2022-12-18T07:52:09.682Z,5.84
2022-12-18T07:55:15.015Z,5.88
2022-12-18T07:57:51.366Z,5.9
2022-12-18T08:00:11.511Z,5.84
2022-12-18T08:02:31.615Z,5.83
2022-12-18T08:04:59.814Z,5.77
2022-12-18T08:08:05.127Z,5.79
2022-12-18T08:11:10.411Z,5.81
2022-12-18T08:14:15.829Z,5.86
2022-12-18T08:16:44.102Z,5.85
2022-12-18T08:19:12.234Z,5.69
2022-12-18T08:21:40.446Z,5.71
2022-12-18T08:24:08.737Z,5.81
2022-12-18T08:27:28.730Z,5.83
2022-12-18T08:29:42.277Z,5.83
2022-12-18T08:32:10.533Z,5.91
2022-12-18T08:35:18.687Z,5.86
2022-12-18T08:37:44.090Z,5.88
2022-12-18T08:40:12.330Z,5.94
2022-12-18T08:42:40.555Z,5.95
2022-12-18T08:45:08.841Z,5.77
2022-12-18T08:48:17.859Z,5.94
2022-12-18T08:50:42.392Z,5.92
2022-12-18T08:53:10.722Z,5.97
2022-12-18T08:56:15.948Z,5.82
2022-12-18T08:58:44.186Z,5.83
2022-12-18T09:01:12.486Z,5.92
2022-12-18T09:04:47.083Z,5.91
2022-12-18T09:07:14.912Z,5.96
2022-12-18T09:09:43.141Z,5.89
2022-12-18T09:12:11.312Z,5.78
2022-12-18T09:14:39.586Z,5.66
2022-12-18T09:17:07.941Z,5.47
2022-12-18T09:20:13.197Z,5.47
2022-12-18T09:22:41.443Z,5.47
2022-12-18T09:25:09.663Z,5.55
2022-12-18T09:28:14.980Z,5.46
2022-12-18T09:30:43.270Z,5.52
2022-12-18T09:33:11.445Z,5.57
2022-12-18T09:35:39.689Z,5.5
2022-12-18T09:38:07.940Z,5.3
2022-12-18T09:41:13.290Z,5.28
2022-12-18T09:43:41.528Z,5.36
2022-12-18T09:46:09.792Z,5.6
2022-12-18T09:49:15.079Z,5.43
2022-12-18T09:51:43.327Z,5.43
2022-12-18T09:54:11.563Z,5.62
2022-12-18T09:56:39.811Z,5.67
2022-12-18T09:59:08.019Z,5.86
2022-12-18T10:02:13.399Z,5.96
2022-12-18T10:04:33.443Z,5.9
2022-12-18T10:07:05.736Z,6.09
2022-12-18T10:10:06.949Z,6.16
2022-12-18T10:13:12.273Z,6.11
2022-12-18T10:15:40.526Z,6.08
2022-12-18T10:18:08.734Z,5.9
2022-12-18T10:21:14.045Z,6.13
2022-12-18T10:23:46.501Z,6.16
2022-12-18T10:26:10.562Z,6.09
2022-12-18T10:29:15.897Z,6.03
2022-12-18T10:32:58.228Z,6.02
2022-12-18T10:36:03.561Z,5.97
2022-12-18T10:39:08.829Z,5.91
2022-12-18T10:42:14.198Z,6.13
2022-12-18T10:44:42.395Z,6.09
2022-12-18T10:47:12.011Z,6.26
2022-12-18T10:50:15.993Z,6.15
2022-12-18T10:52:45.300Z,6.15
2022-12-18T10:55:12.479Z,6.27
2022-12-18T10:57:40.710Z,6.3
2022-12-18T11:00:08.954Z,6.1
2022-12-18T11:02:37.425Z,6
2022-12-18T11:04:57.224Z,6.02
2022-12-18T11:08:02.572Z,6.01
2022-12-18T11:11:07.937Z,5.9
2022-12-18T11:14:13.204Z,5.79
2022-12-18T11:16:43.898Z,5.77
2022-12-18T11:19:09.744Z,5.76
2022-12-18T11:22:14.983Z,5.8
2022-12-18T11:24:43.270Z,5.8
2022-12-18T11:27:11.456Z,5.98
2022-12-18T11:29:44.897Z,6.04
2022-12-18T11:32:07.974Z,6.01
2022-12-18T11:35:13.343Z,6.19
2022-12-18T11:37:41.543Z,6.25
2022-12-18T11:40:09.798Z,6.36
2022-12-18T11:43:15.107Z,6.11
2022-12-18T11:45:43.368Z,6.07
2022-12-18T11:48:11.617Z,5.97
2022-12-18T11:50:39.854Z,5.99
2022-12-18T11:53:08.101Z,5.95
2022-12-18T11:56:13.422Z,6
2022-12-18T11:58:41.911Z,6.06
2022-12-18T12:01:09.901Z,6.22
2022-12-18T12:04:07.081Z,6.17
2022-12-18T12:07:12.324Z,6.3
2022-12-18T12:09:40.569Z,6.29
2022-12-18T12:12:08.840Z,6.26
2022-12-18T12:15:14.155Z,6.37
2022-12-18T12:17:42.359Z,6.37
2022-12-18T12:20:10.570Z,6.2
2022-12-18T12:23:15.901Z,6.21
2022-12-18T12:25:44.193Z,6.21
2022-12-18T12:28:12.452Z,6.11
2022-12-18T12:30:40.657Z,6.1
2022-12-18T12:33:08.909Z,6.07
2022-12-18T12:36:14.204Z,6.13
2022-12-18T12:38:45.686Z,6.22
2022-12-18T12:41:10.707Z,6.4
2022-12-18T12:44:16.042Z,6.35
2022-12-18T12:46:44.272Z,6.42
2022-12-18T12:49:19.690Z,6.5
2022-12-18T12:51:40.738Z,6.56
2022-12-18T12:54:08.999Z,6.63
2022-12-18T12:57:14.329Z,6.75
2022-12-18T12:59:42.545Z,6.71
2022-12-18T13:02:10.959Z,6.48
2022-12-18T13:04:30.903Z,6.51
2022-12-18T13:06:59.124Z,6.47
2022-12-18T13:10:04.448Z,6.68
2022-12-18T13:13:10.433Z,6.71
2022-12-18T13:16:15.058Z,6.71
2022-12-18T13:18:43.561Z,6.77
2022-12-18T13:21:11.583Z,6.95
2022-12-18T13:23:40.125Z,6.94
2022-12-18T13:26:08.064Z,6.85
2022-12-18T13:29:13.376Z,6.82
2022-12-18T13:31:41.915Z,6.81
2022-12-18T13:37:15.217Z,6.78
2022-12-18T13:39:43.384Z,6.78
2022-12-18T13:42:11.637Z,6.71
2022-12-18T13:44:41.050Z,6.72
2022-12-18T13:47:08.132Z,6.77
2022-12-18T13:50:13.475Z,6.72
2022-12-18T13:52:41.691Z,6.73
2022-12-18T13:55:09.952Z,6.84
2022-12-18T13:58:15.240Z,6.84
2022-12-18T14:03:12.138Z,6.92
2022-12-18T14:05:31.782Z,6.86
2022-12-18T14:08:00.044Z,6.95
2022-12-18T14:11:05.393Z,6.96
2022-12-18T14:14:10.681Z,6.9
2022-12-18T14:17:15.969Z,6.95
2022-12-18T14:19:44.205Z,6.94
2022-12-18T14:22:12.478Z,6.9
2022-12-18T14:24:40.722Z,6.88
2022-12-18T14:27:08.950Z,6.74
2022-12-18T14:30:14.324Z,6.94
2022-12-18T14:32:42.568Z,6.94
2022-12-18T14:35:10.757Z,6.99
2022-12-18T14:37:39.054Z,6.99
2022-12-18T14:40:10.807Z,7.11
2022-12-18T14:43:12.603Z,7.03
2022-12-18T14:45:42.013Z,6.99
2022-12-18T14:48:09.122Z,6.9
2022-12-18T14:51:14.361Z,7.02
2022-12-18T14:53:45.362Z,6.97
2022-12-18T14:56:10.841Z,6.88
2022-12-18T14:59:20.744Z,6.82
2022-12-18T15:01:44.515Z,6.8
2022-12-18T15:04:04.471Z,6.79
2022-12-18T15:07:09.808Z,6.8
2022-12-18T15:10:15.097Z,6.8
2022-12-18T15:12:43.351Z,6.8
2022-12-18T15:15:11.581Z,6.82
2022-12-18T15:17:39.844Z,6.86
2022-12-18T15:20:08.081Z,7
2022-12-18T15:23:13.399Z,7.04
2022-12-18T15:25:41.646Z,7.06
2022-12-18T15:28:09.902Z,7.12
2022-12-18T15:31:16.226Z,7.05
2022-12-18T15:33:43.825Z,7
2022-12-18T15:36:48.751Z,6.95
2022-12-18T15:39:54.168Z,6.85
2022-12-18T15:42:59.385Z,6.79
2022-12-18T15:46:04.726Z,6.87
2022-12-18T15:49:10.017Z,6.97
2022-12-18T15:52:15.280Z,7.06
2022-12-18T15:54:43.566Z,7.07
2022-12-18T15:57:11.826Z,7.17
2022-12-18T16:00:17.167Z,7.24
2022-12-18T16:02:45.463Z,7.24
2022-12-18T16:05:05.375Z,7.19
2022-12-18T16:08:10.711Z,7.16
2022-12-18T16:11:16.028Z,7.07
2022-12-18T16:13:44.343Z,7.03
2022-12-18T16:16:12.553Z,6.92
2022-12-18T16:18:40.775Z,6.89
2022-12-18T16:21:09.033Z,6.78
2022-12-18T16:24:14.341Z,6.89
2022-12-18T16:26:42.577Z,6.91
2022-12-18T16:29:47.907Z,6.95
2022-12-18T16:32:16.144Z,7.06
2022-12-18T16:34:44.359Z,7.11
2022-12-18T16:37:12.682Z,7.2
2022-12-18T16:39:40.878Z,7.22
2022-12-18T16:42:09.117Z,7.17
2022-12-18T16:45:14.437Z,7.1
2022-12-18T16:47:42.710Z,7.08
2022-12-18T16:50:10.912Z,6.9
2022-12-18T16:53:16.228Z,6.88
2022-12-18T16:55:44.508Z,6.9
2022-12-18T16:58:12.745Z,6.89
2022-12-18T17:00:40.976Z,6.83
2022-12-18T17:03:46.667Z,7.07
2022-12-18T17:06:06.311Z,7.13
2022-12-18T17:09:11.658Z,7.19
2022-12-18T17:11:39.919Z,7.2
2022-12-18T17:14:08.130Z,7.25
2022-12-18T17:17:22.143Z,7.26
2022-12-18T17:19:41.719Z,7.26
2022-12-18T17:22:09.936Z,7.2
2022-12-18T17:25:15.287Z,7.14
2022-12-18T17:27:43.496Z,7.11
2022-12-18T17:30:11.755Z,6.97
2022-12-18T17:32:39.993Z,7.03
2022-12-18T17:35:45.305Z,6.95
2022-12-18T17:38:13.514Z,6.99
2022-12-18T17:40:46.020Z,7.01
2022-12-18T17:43:10.065Z,7.07
2022-12-18T17:46:15.451Z,7.12
2022-12-18T17:48:43.590Z,7.14
2022-12-18T17:51:11.858Z,7.23
2022-12-18T17:53:40.404Z,7.25
2022-12-18T17:56:08.363Z,7.26
2022-12-18T17:59:13.660Z,7.19
2022-12-18T18:01:44.691Z,7.16
2022-12-18T18:04:10.269Z,7.07
2022-12-18T18:07:07.285Z,6.95
2022-12-18T18:10:12.581Z,6.88
2022-12-18T18:12:40.861Z,6.9
2022-12-18T18:15:09.082Z,6.77
2022-12-18T18:18:14.416Z,6.96
2022-12-18T18:20:42.639Z,6.98
2022-12-18T18:23:10.880Z,7.08
2022-12-18T18:25:39.098Z,7.11
2022-12-18T18:28:07.358Z,7.18
2022-12-18T18:31:12.780Z,7.26
2022-12-18T18:33:41.245Z,7.31
2022-12-18T18:36:09.157Z,7.32
2022-12-18T18:39:14.469Z,7.26
2022-12-18T18:41:46.468Z,7.23
2022-12-18T18:44:10.983Z,7.19
2022-12-18T18:48:21.393Z,7.1
2022-12-18T18:49:44.496Z,7.06
2022-12-18T18:52:12.810Z,7.04
2022-12-18T18:54:52.124Z,6.95
2022-12-18T18:57:20.221Z,7.1
2022-12-18T19:00:51.655Z,7.1
2022-12-18T19:03:56.982Z,7.15
2022-12-18T19:06:16.987Z,7.2
2022-12-18T19:08:45.263Z,7.21
2022-12-18T19:11:13.464Z,7.35
2022-12-18T19:13:42.021Z,7.36
2022-12-18T19:16:10.084Z,7.25
2022-12-18T19:19:15.300Z,7.21
2022-12-18T19:21:43.552Z,7.2
2022-12-18T19:24:11.787Z,7.13
2022-12-18T19:26:40.052Z,7.08
2022-12-18T19:29:08.259Z,7.04
2022-12-18T19:32:13.667Z,7.01
2022-12-18T19:34:41.860Z,7.01
2022-12-18T19:37:10.105Z,7.12
2022-12-18T19:40:15.417Z,7.17
2022-12-18T19:42:43.642Z,7.19
2022-12-18T19:45:11.897Z,7.27
2022-12-18T19:47:40.176Z,7.29
2022-12-18T19:50:08.446Z,7.34
2022-12-18T19:53:13.707Z,7.35
2022-12-18T19:55:41.938Z,7.35
2022-12-18T19:58:10.189Z,7.35
2022-12-18T20:01:16.594Z,7.27
2022-12-18T20:03:44.167Z,7.25
2022-12-18T20:06:03.845Z,7.16
2022-12-18T20:09:09.139Z,7.12
2022-12-18T20:12:14.455Z,7.15
2022-12-18T20:14:42.687Z,7.17
2022-12-18T20:17:10.908Z,7.23
2022-12-18T20:19:39.185Z,7.25
2022-12-18T20:22:07.395Z,7.28
2022-12-18T20:25:12.736Z,7.32
2022-12-18T20:27:40.969Z,7.11
2022-12-18T20:30:10.272Z,7.41
2022-12-18T20:33:52.287Z,7.42
2022-12-18T20:36:56.883Z,7.44
2022-12-18T20:40:02.206Z,7.42
2022-12-18T20:43:07.909Z,7.37
2022-12-18T20:46:12.918Z,7.25
2022-12-18T20:48:41.086Z,7.2
2022-12-18T20:51:09.336Z,7.11
2022-12-18T20:54:51.678Z,7.12
2022-12-18T20:57:57.016Z,7.11
2022-12-18T21:01:02.342Z,7.19
2022-12-18T21:04:07.723Z,7.19
2022-12-18T21:07:04.732Z,7.29
2022-12-18T21:10:10.038Z,7.28
2022-12-18T21:13:15.357Z,7.35
2022-12-18T21:15:43.573Z,7.35
2022-12-18T21:18:11.860Z,7.33
2022-12-18T21:20:40.049Z,7.32
2022-12-18T21:23:12.027Z,7.24
2022-12-18T21:26:13.655Z,7.17
2022-12-18T21:28:41.871Z,7.15
2022-12-18T21:31:10.141Z,7.05
2022-12-18T21:34:15.474Z,7.1
2022-12-18T21:36:43.725Z,7.1
2022-12-18T21:39:11.911Z,7.15
2022-12-18T21:41:42.244Z,7.14
2022-12-18T21:44:08.461Z,7.11
2022-12-18T21:47:22.524Z,7.16
2022-12-18T21:49:41.994Z,7.19
2022-12-18T21:52:10.219Z,7.23
2022-12-18T21:54:38.520Z,7.24
2022-12-18T21:57:06.749Z,7.24
2022-12-18T22:00:12.490Z,7.26
2022-12-18T22:02:40.584Z,7.25
2022-12-18T22:05:08.563Z,7.28
2022-12-18T22:08:13.855Z,7.23
2022-12-18T22:10:33.903Z,7.19
2022-12-18T22:13:02.130Z,7.21
2022-12-18T22:16:07.497Z,7.24
2022-12-18T22:19:12.746Z,7.28
2022-12-18T22:21:41.030Z,7.27
2022-12-18T22:24:09.261Z,7.29
2022-12-18T22:27:51.618Z,7.34
2022-12-18T22:30:59.403Z,7.44
2022-12-18T22:34:02.285Z,7.5
2022-12-18T22:37:07.580Z,7.46
2022-12-18T22:40:13.014Z,7.38
2022-12-18T22:42:41.097Z,7.37
2022-12-18T22:45:12.433Z,7.34
2022-12-18T22:48:14.690Z,7.28
2022-12-18T22:50:42.953Z,7.24
2022-12-18T22:53:11.204Z,7.23
2022-12-18T22:55:39.452Z,7.23
2022-12-18T22:58:07.731Z,7.28
2022-12-18T23:01:13.012Z,7.32
2022-12-18T23:03:41.265Z,7.35
2022-12-18T23:06:09.492Z,7.48
2022-12-18T23:09:14.786Z,7.48
2022-12-18T23:11:43.024Z,7.49
2022-12-18T23:14:11.251Z,7.5
2022-12-18T23:16:39.534Z,7.48
2022-12-18T23:18:59.592Z,7.39
2022-12-18T23:22:08.656Z,7.36
2022-12-18T23:25:10.240Z,7.32
2022-12-18T23:28:15.534Z,7.24
2022-12-18T23:30:43.782Z,7.26
2022-12-18T23:33:11.997Z,7.19
2022-12-18T23:35:40.227Z,7.19
2022-12-18T23:38:08.502Z,7.26
2022-12-18T23:41:13.825Z,7.34
2022-12-18T23:43:42.011Z,7.38
2022-12-18T23:48:01.506Z,7.43
2022-12-18T23:51:06.807Z,7.47
2022-12-18T23:54:12.134Z,7.49
2022-12-18T23:56:40.355Z,7.45
2022-12-18T23:59:08.621Z,7.38
